Home > Products > Valid Products > TAF

000
FTUS43 KDVN 311735
TAFDBQ
TAF
KDBQ 311735Z 3118/0118 14010KT P6SM BKN120
     FM312000 19008KT P6SM BKN050
      TEMPO 3122/0102 5SM -TSRA BKN035CB
     FM010200 17005KT P6SM VCSH BKN040
     FM010400 25007KT P6SM SCT200=



000
FTUS43 KDVN 311735
TAFBRL
TAF
KBRL 311735Z 3118/0118 16005KT P6SM SCT060 BKN120
     FM312100 18005KT P6SM VCTS BKN035CB
     FM010000 18003KT P6SM BKN035
      TEMPO 0101/0104 4SM TSRA BKN035CB
     FM010400 35004KT P6SM SCT200=



000
FTUS43 KDVN 311735
TAFMLI
TAF
KMLI 311735Z 3118/0118 20008KT P6SM BKN120
      TEMPO 3123/0103 5SM TSRA OVC035CB
     FM010300 18005KT P6SM VCTS BKN035CB
     FM010500 24004KT P6SM SCT200=



000
FTUS43 KDVN 311735
TAFCID
TAF
KCID 311735Z 3118/0118 22010KT P6SM SCT050
     FM312200 19010KT P6SM BKN050
      TEMPO 3122/0102 5SM -TSRA OVC035CB
     FM010200 19005KT P6SM VCTS BKN035CB
     FM010400 26007KT P6SM SCT200=



000
FTUS43 KDVN 311602 AAA
TAFMLI
TAF AMD
KMLI 311602Z 3116/0112 16006KT P6SM BKN060
      TEMPO 3118/3122 5SM TSRA OVC035CB
     FM010000 16005KT P6SM VCSH BKN035
      TEMPO 0103/0107 5SM -TSRA BR OVC035CB=



000
FTUS43 KDVN 311559 AAB
TAFDBQ
TAF AMD
KDBQ 311559Z 3116/0112 20007KT P6SM VCSH SCT050 BKN120
     FM311800 17008KT P6SM VCSH BKN050
     FM010000 16005KT P6SM VCSH BKN040
      TEMPO 0103/0106 4SM -TSRA BR OVC035CB=



000
FTUS43 KDVN 311456 AAA
TAFDBQ
TAF AMD
KDBQ 311456Z 3115/0112 19008KT P6SM VCTS SCT050CB BKN100
      TEMPO 3115/3117 VRB15G25KT 3SM -TSRA BKN035CB
     FM311800 17008KT P6SM VCSH BKN050
     FM010000 16005KT P6SM VCSH BKN040
      TEMPO 0103/0106 4SM -TSRA BR OVC035CB=



000
FTUS43 KDVN 311120
TAFBRL
TAF
KBRL 311120Z 3112/0112 18006KT P6SM VCSH BKN120
      TEMPO 3118/3122 5SM TSRA OVC035CB
     FM010000 16005KT P6SM VCSH BKN035
      TEMPO 0105/0109 5SM -TSRA BR OVC035CB=



000
FTUS43 KDVN 311120
TAFMLI
TAF
KMLI 311120Z 3112/0112 13005KT P6SM SCT100
     FM311500 16009KT P6SM VCSH BKN060
      TEMPO 3118/3122 5SM TSRA OVC035CB
     FM010000 16005KT P6SM VCSH BKN035
      TEMPO 0103/0107 5SM -TSRA BR OVC035CB=



000
FTUS43 KDVN 311120
TAFDBQ
TAF
KDBQ 311120Z 3112/0112 12004KT P6SM SCT100 BKN200
     FM311800 17008KT P6SM VCSH BKN050
     FM010000 16005KT P6SM VCSH BKN040
      TEMPO 0103/0106 4SM -TSRA BR OVC035CB=



000
FTUS43 KDVN 310622 AAA
TAFDBQ
TAF AMD
KDBQ 310622Z 3106/0106 02004KT P6SM VCTS OVC070CB
     FM310900 17006KT P6SM SCT060
     FM010000 16005KT P6SM VCSH BKN040=



000
FTUS43 KDVN 310148 AAA
TAFDBQ
TAF AMD
KDBQ 310148Z 3102/3124 16004KT P6SM VCTS SCT060CB
      TEMPO 3102/3104 17020G35KT 5SM -TSRA BKN040CB
     FM310400 15005KT P6SM SCT120
     FM311500 18012KT P6SM SCT050=



000
FTUS43 KDVN 310111 AAA
TAFCID
TAF AMD
KCID 310111Z 3101/3124 19006KT P6SM VCTS SCT060CB
      TEMPO 3101/3102 19025G40KT 5SM -TSRA BKN040CB
     FM310200 15004KT P6SM SCT150
     FM311600 17012KT P6SM BKN050=



000
FTUS43 KDVN 301730
TAFCID
TAF
KCID 301730Z 3018/3118 12008KT P6SM SCT080
     FM302200 17006KT P6SM VCSH SCT060
     FM310200 13005KT P6SM SCT150
     FM311500 20008KT P6SM SCT120 BKN250=



000
FTUS43 KDVN 301730
TAFMLI
TAF
KMLI 301730Z 3018/3118 29007KT P6SM SCT080
     FM302100 20007KT P6SM VCSH BKN060
     FM310200 13003KT P6SM SCT150
     FM311500 18008KT P6SM BKN250=



000
FTUS43 KDVN 301730
TAFDBQ
TAF
KDBQ 301730Z 3018/3118 VRB05KT P6SM VCSH SCT060 BKN100
     FM301900 11006KT P6SM SCT090
     FM310300 14004KT P6SM BKN250
     FM311500 19008KT P6SM SCT120 BKN250=



000
FTUS43 KDVN 301730
TAFBRL
TAF
KBRL 301730Z 3018/3118 13006KT P6SM SCT080
     FM302100 16007KT P6SM VCSH SCT060
     FM310200 15004KT P6SM SCT120
     FM310900 16003KT 5SM BR BKN250
     FM311500 19008KT P6SM BKN250=



000
FTUS43 KDVN 301357 AAA
TAFBRL
TAF AMD
KBRL 301357Z 3014/3112 23005KT P6SM VCTS SCT030 BKN100CB
      TEMPO 3014/3016 VRB15G25KT 4SM -TSRA BR BKN035CB
     FM301600 21006KT P6SM SCT060=



000
FTUS43 KDVN 301120
TAFBRL
TAF
KBRL 301120Z 3012/3112 VRB02KT P6SM BKN150
     FM301600 21006KT P6SM SCT060=



000
FTUS43 KDVN 301120
TAFCID
TAF
KCID 301120Z 3012/3112 20003KT P6SM VCTS SCT080CB SCT120
     FM301600 15005KT P6SM SCT060=



000
FTUS43 KDVN 301120
TAFDBQ
TAF
KDBQ 301120Z 3012/3112 VRB03KT P6SM SCT080
     FM301600 16004KT P6SM SCT060=



000
FTUS43 KDVN 301120
TAFMLI
TAF
KMLI 301120Z 3012/3112 19003KT P6SM SCT150
     FM301600 20006KT P6SM SCT060=



000
FTUS43 KDVN 291259 AAA
TAFDBQ
TAF AMD
KDBQ 291259Z 2913/3012 28012KT P6SM BKN012
     FM291340 27013KT P6SM SCT012
     FM291600 27013G17KT P6SM SCT040
     FM300000 24005KT P6SM FEW250=



000
FTUS43 KDVN 291258 AAA
TAFCID
TAF AMD
KCID 291258Z 2913/3012 28011KT P6SM BKN014
     FM291340 28011KT P6SM SCT014
     FM291600 27012KT P6SM SCT040
     FM300000 24006KT P6SM FEW250=



000
FTUS43 KDVN 291238 AAB
TAFMLI
TAF AMD
KMLI 291238Z 2913/3012 25011KT P6SM BKN016
     FM291500 27011KT P6SM SCT050
     FM300000 23005KT P6SM FEW250=



000
FTUS43 KDVN 290245 AAA
TAFBRL
TAF AMD
KBRL 290245Z 2903/2924 26008KT P6SM SCT050
     FM291400 28010KT P6SM SCT050=



000
FTUS43 KDVN 290041 AAA
TAFCID
TAF AMD
KCID 290041Z 2901/2924 22013KT P6SM SCT120
     FM290900 26009KT 5SM BR SCT020 SCT035
     FM291400 27012KT P6SM BKN050=



    US Dept of Commerce
    National Oceanic and Atmospheric Administration
    National Weather Service
    1325 East West Highway
    Silver Spring, MD 20910
    Page Author: NWS Internet Services Team
Disclaimer
Information Quality
Credits
Glossary
Privacy Policy
Freedom of Information Act (FOIA)
About Us
Career Opportunities